createdAt,value
2019-05-11T00:00:26.838Z,98.70
2019-05-11T00:02:58.965Z,97.29
2019-05-11T00:05:32.406Z,100.00
2019-05-11T00:08:03.277Z,96.52
2019-05-11T00:10:35.344Z,95.75
2019-05-11T00:13:07.893Z,95.51
2019-05-11T00:15:40.816Z,96.25
2019-05-11T00:18:13.246Z,99.78
2019-05-11T00:20:47.754Z,97.85
2019-05-11T00:23:20.863Z,96.71
2019-05-11T00:25:53.637Z,100.00
2019-05-11T00:28:26.275Z,100.00
2019-05-11T00:30:59.096Z,100.00
2019-05-11T00:33:31.271Z,100.00
2019-05-11T00:36:03.708Z,100.00
2019-05-11T00:38:37.398Z,100.00
2019-05-11T00:41:10.310Z,100.00
2019-05-11T00:43:43.053Z,99.56
2019-05-11T00:46:15.624Z,100.00
2019-05-11T00:48:48.265Z,97.88
2019-05-11T00:51:21.561Z,100.00
2019-05-11T00:53:55.049Z,100.00
2019-05-11T00:56:26.478Z,100.00
2019-05-11T00:58:59.178Z,100.00
2019-05-11T01:01:31.655Z,100.00
2019-05-11T01:04:04.879Z,100.00
2019-05-11T01:06:35.870Z,100.00
2019-05-11T01:09:09.662Z,100.00
2019-05-11T01:11:42.684Z,100.00
2019-05-11T01:14:20.863Z,100.00
2019-05-11T01:16:54.092Z,100.00
2019-05-11T01:19:26.819Z,100.00
2019-05-11T01:21:58.983Z,100.00
2019-05-11T01:24:32.062Z,100.00
2019-05-11T01:27:04.295Z,100.00
2019-05-11T01:29:36.997Z,100.00
2019-05-11T01:32:09.945Z,100.00
2019-05-11T01:34:42.218Z,100.00
2019-05-11T01:37:14.794Z,100.00
2019-05-11T01:39:47.255Z,100.00
2019-05-11T01:42:19.894Z,100.00
2019-05-11T01:44:52.377Z,100.00
2019-05-11T01:47:25.113Z,100.00
2019-05-11T01:49:57.916Z,100.00
2019-05-11T01:52:30.910Z,100.00
2019-05-11T01:55:03.376Z,100.00
2019-05-11T01:57:35.942Z,100.00
2019-05-11T02:00:09.590Z,100.00
2019-05-11T02:02:42.380Z,100.00
2019-05-11T02:05:31.863Z,100.00
2019-05-11T02:08:04.888Z,100.00
2019-05-11T02:10:37.157Z,100.00
2019-05-11T02:13:09.636Z,100.00
2019-05-11T02:15:42.489Z,100.00
2019-05-11T02:18:17.775Z,100.00
2019-05-11T02:20:52.222Z,100.00
2019-05-11T02:23:25.377Z,100.00
2019-05-11T02:25:58.541Z,100.00
2019-05-11T02:28:29.806Z,100.00
2019-05-11T02:31:02.160Z,100.00
2019-05-11T02:33:34.710Z,100.00
2019-05-11T02:36:07.335Z,100.00
2019-05-11T02:38:41.118Z,100.00
2019-05-11T02:41:14.125Z,100.00
2019-05-11T02:43:47.504Z,100.00
2019-05-11T02:46:21.157Z,100.00
2019-05-11T02:48:54.533Z,100.00
2019-05-11T02:51:26.530Z,100.00
2019-05-11T02:54:00.435Z,100.00
2019-05-11T02:56:33.871Z,100.00
2019-05-11T02:59:05.092Z,100.00
2019-05-11T03:01:37.205Z,100.00
2019-05-11T03:04:10.057Z,100.00
2019-05-11T03:06:42.557Z,100.00
2019-05-11T03:09:15.706Z,100.00
2019-05-11T03:11:55.786Z,100.00
2019-05-11T03:14:21.042Z,100.00
2019-05-11T03:17:10.761Z,100.00
2019-05-11T03:19:44.083Z,100.00
2019-05-11T03:22:17.271Z,100.00
2019-05-11T03:24:50.842Z,100.00
2019-05-11T03:27:24.075Z,100.00
2019-05-11T03:30:00.867Z,100.00
2019-05-11T03:32:31.178Z,100.00
2019-05-11T03:35:04.198Z,100.00
2019-05-11T03:37:36.648Z,100.00
2019-05-11T03:40:10.292Z,100.00
2019-05-11T03:42:44.301Z,100.00
2019-05-11T03:45:17.403Z,100.00
2019-05-11T03:47:50.342Z,100.00
2019-05-11T03:50:23.196Z,100.00
2019-05-11T03:52:55.372Z,100.00
2019-05-11T03:55:27.696Z,100.00
2019-05-11T03:57:59.888Z,100.00
2019-05-11T04:00:31.768Z,100.00
2019-05-11T04:03:04.521Z,100.00
2019-05-11T04:05:36.682Z,100.00
2019-05-11T04:08:09.476Z,100.00
2019-05-11T04:10:41.628Z,100.00
2019-05-11T04:13:14.502Z,100.00
2019-05-11T04:15:46.926Z,100.00
2019-05-11T04:18:19.093Z,100.00
2019-05-11T04:20:53.291Z,100.00
2019-05-11T04:23:25.703Z,100.00
2019-05-11T04:25:58.760Z,100.00
2019-05-11T04:28:31.554Z,100.00
2019-05-11T04:31:04.085Z,100.00
2019-05-11T04:33:36.308Z,100.00
2019-05-11T04:36:08.493Z,100.00
2019-05-11T04:38:41.266Z,100.00
2019-05-11T04:41:14.062Z,100.00
2019-05-11T04:43:47.081Z,100.00
2019-05-11T04:46:19.650Z,100.00
2019-05-11T04:48:51.769Z,100.00
2019-05-11T04:51:24.863Z,100.00
2019-05-11T04:53:57.326Z,100.00
2019-05-11T04:56:29.806Z,100.00
2019-05-11T04:59:02.501Z,100.00
2019-05-11T05:01:35.099Z,100.00
2019-05-11T05:04:14.042Z,100.00
2019-05-11T05:06:41.542Z,100.00
2019-05-11T05:09:13.730Z,100.00
2019-05-11T05:11:46.652Z,100.00
2019-05-11T05:14:19.599Z,100.00
2019-05-11T05:16:52.124Z,100.00
2019-05-11T05:19:24.878Z,100.00
2019-05-11T05:21:57.073Z,100.00
2019-05-11T05:24:29.492Z,100.00
2019-05-11T05:27:01.771Z,100.00
2019-05-11T05:29:34.112Z,100.00
2019-05-11T05:32:06.283Z,100.00
2019-05-11T05:34:38.853Z,100.00
2019-05-11T05:37:11.711Z,100.00
2019-05-11T05:39:45.204Z,100.00
2019-05-11T05:42:19.001Z,100.00
2019-05-11T05:44:52.168Z,100.00
2019-05-11T05:47:26.753Z,100.00
2019-05-11T05:49:59.525Z,100.00
2019-05-11T05:52:32.538Z,100.00
2019-05-11T05:55:05.202Z,100.00
2019-05-11T05:57:38.396Z,100.00
2019-05-11T06:00:09.646Z,100.00
2019-05-11T06:02:42.733Z,100.00
2019-05-11T06:05:15.860Z,100.00
2019-05-11T06:07:49.114Z,100.00
2019-05-11T06:10:22.524Z,100.00
2019-05-11T06:12:54.242Z,100.00
2019-05-11T06:15:27.439Z,100.00
2019-05-11T06:18:00.728Z,100.00
2019-05-11T06:20:33.840Z,100.00
2019-05-11T06:23:04.768Z,100.00
2019-05-11T06:25:37.039Z,100.00
2019-05-11T06:28:09.262Z,100.00
2019-05-11T06:30:41.476Z,100.00
2019-05-11T06:33:13.639Z,100.00
2019-05-11T06:35:46.194Z,100.00
2019-05-11T06:38:18.657Z,100.00
2019-05-11T06:41:02.057Z,100.00
2019-05-11T06:43:36.362Z,100.00
2019-05-11T06:46:08.860Z,100.00
2019-05-11T06:48:41.994Z,100.00
2019-05-11T06:51:13.508Z,100.00
2019-05-11T06:53:45.826Z,100.00
2019-05-11T06:56:18.543Z,100.00
2019-05-11T06:58:51.213Z,100.00
2019-05-11T07:01:24.063Z,100.00
2019-05-11T07:03:57.570Z,100.00
2019-05-11T07:06:30.733Z,100.00
2019-05-11T07:09:05.498Z,100.00
2019-05-11T07:11:38.989Z,100.00
2019-05-11T07:14:20.685Z,100.00
2019-05-11T07:16:46.585Z,100.00
2019-05-11T07:19:19.584Z,100.00
2019-05-11T07:21:52.836Z,100.00
2019-05-11T07:24:25.879Z,100.00
2019-05-11T07:26:58.777Z,100.00
2019-05-11T07:29:31.352Z,100.00
2019-05-11T07:32:10.101Z,100.00
2019-05-11T07:34:38.727Z,100.00
2019-05-11T07:37:11.281Z,100.00
2019-05-11T07:39:43.717Z,100.00
2019-05-11T07:42:17.982Z,100.00
2019-05-11T07:44:51.138Z,100.00
2019-05-11T07:47:24.196Z,100.00
2019-05-11T07:49:57.901Z,100.00
2019-05-11T07:52:32.202Z,100.00
2019-05-11T07:55:04.873Z,100.00
2019-05-11T07:57:39.102Z,100.00
2019-05-11T08:00:12.965Z,100.00
2019-05-11T08:02:48.033Z,100.00
2019-05-11T08:05:20.737Z,100.00
2019-05-11T08:07:53.380Z,100.00
2019-05-11T08:10:28.191Z,100.00
2019-05-11T08:13:01.682Z,100.00
2019-05-11T08:15:34.462Z,100.00
2019-05-11T08:18:08.582Z,100.00
2019-05-11T08:20:40.801Z,100.00
2019-05-11T08:23:13.025Z,100.00
2019-05-11T08:25:45.588Z,100.00
2019-05-11T08:28:18.417Z,100.00
2019-05-11T08:30:51.881Z,100.00
2019-05-11T08:33:24.035Z,100.00
2019-05-11T08:35:58.264Z,100.00
2019-05-11T08:38:31.040Z,100.00
2019-05-11T08:41:02.526Z,100.00
2019-05-11T08:43:34.671Z,100.00
2019-05-11T08:46:08.015Z,100.00
2019-05-11T08:48:44.189Z,100.00
2019-05-11T08:51:18.705Z,100.00
2019-05-11T08:53:51.632Z,100.00
2019-05-11T08:56:24.587Z,100.00
2019-05-11T08:58:55.478Z,100.00
2019-05-11T09:01:28.831Z,100.00
2019-05-11T09:04:02.057Z,97.58
2019-05-11T09:06:34.275Z,100.00
2019-05-11T09:09:08.954Z,97.04
2019-05-11T09:11:41.309Z,98.23
2019-05-11T09:14:14.078Z,94.47
2019-05-11T09:16:48.703Z,96.71
2019-05-11T09:19:22.232Z,97.20
2019-05-11T09:21:55.333Z,95.39
2019-05-11T09:24:28.473Z,90.66
2019-05-11T09:27:01.024Z,89.91
2019-05-11T09:29:33.407Z,88.59
2019-05-11T09:32:08.671Z,86.84
2019-05-11T09:34:40.638Z,90.41
2019-05-11T09:37:13.506Z,88.85
2019-05-11T09:39:47.731Z,87.60
2019-05-11T09:42:19.783Z,87.13
2019-05-11T09:44:52.663Z,87.60
2019-05-11T09:47:23.751Z,88.21
2019-05-11T09:49:58.044Z,88.04
2019-05-11T09:52:32.852Z,89.10
2019-05-11T09:55:08.543Z,89.69
2019-05-11T09:57:40.307Z,90.55
2019-05-11T10:00:13.321Z,90.97
2019-05-11T10:02:45.959Z,88.95
2019-05-11T10:05:18.886Z,87.99
2019-05-11T10:07:51.286Z,87.26
2019-05-11T10:10:22.220Z,86.10
2019-05-11T10:12:55.139Z,89.28
2019-05-11T10:15:28.215Z,94.81
2019-05-11T10:18:00.687Z,99.48
2019-05-11T10:20:33.995Z,100.00
2019-05-11T10:23:08.353Z,100.00
2019-05-11T10:25:40.746Z,100.00
2019-05-11T10:28:13.406Z,100.00
2019-05-11T10:30:45.697Z,100.00
2019-05-11T10:33:18.972Z,98.73
2019-05-11T10:35:51.866Z,99.71
2019-05-11T10:38:23.892Z,100.00
2019-05-11T10:40:58.263Z,100.00
2019-05-11T10:43:39.656Z,100.00
2019-05-11T10:46:20.244Z,99.27
2019-05-11T10:48:49.599Z,99.44
2019-05-11T10:51:22.058Z,93.14
2019-05-11T10:53:54.699Z,95.30
2019-05-11T10:56:28.383Z,95.52
2019-05-11T10:59:01.240Z,96.10
2019-05-11T11:01:34.624Z,98.23
2019-05-11T11:04:07.812Z,99.40
2019-05-11T11:06:40.304Z,94.86
2019-05-11T11:09:12.904Z,93.97
2019-05-11T11:11:45.353Z,89.86
2019-05-11T11:14:18.147Z,87.56
2019-05-11T11:16:50.682Z,86.66
2019-05-11T11:19:33.345Z,87.16
2019-05-11T11:22:32.401Z,87.48
2019-05-11T11:24:40.274Z,86.87
2019-05-11T11:27:12.741Z,80.48
2019-05-11T11:29:45.023Z,83.58
2019-05-11T11:32:18.380Z,82.36
2019-05-11T11:34:50.540Z,81.78
2019-05-11T11:37:22.924Z,81.91
2019-05-11T11:39:58.153Z,77.99
2019-05-11T11:42:31.168Z,80.72
2019-05-11T11:45:03.555Z,82.81
2019-05-11T11:47:38.357Z,81.34
2019-05-11T11:50:10.718Z,80.19
2019-05-11T11:52:45.072Z,77.58
2019-05-11T11:55:18.705Z,78.51
2019-05-11T11:57:51.448Z,75.75
2019-05-11T12:00:24.224Z,72.90
2019-05-11T12:02:57.984Z,74.55
2019-05-11T12:05:30.699Z,71.84
2019-05-11T12:08:02.452Z,68.26
2019-05-11T12:10:35.256Z,67.95
2019-05-11T12:13:08.631Z,66.82
2019-05-11T12:15:41.542Z,67.63
2019-05-11T12:18:13.387Z,67.58
2019-05-11T12:20:47.888Z,67.14
2019-05-11T12:23:19.321Z,65.77
2019-05-11T12:25:52.163Z,64.92
2019-05-11T12:28:25.059Z,66.03
2019-05-11T12:30:58.639Z,64.37
2019-05-11T12:33:30.805Z,64.46
2019-05-11T12:36:02.942Z,64.08
2019-05-11T12:38:35.326Z,65.08
2019-05-11T12:41:08.898Z,63.39
2019-05-11T12:43:41.272Z,65.47
2019-05-11T12:46:13.784Z,63.33
2019-05-11T12:48:48.262Z,63.50
2019-05-11T12:51:20.155Z,63.26
2019-05-11T12:53:52.547Z,62.76
2019-05-11T12:56:27.704Z,62.70
2019-05-11T12:58:59.845Z,62.33
2019-05-11T13:01:32.881Z,62.36
2019-05-11T13:04:04.721Z,60.72
2019-05-11T13:06:38.547Z,61.23
2019-05-11T13:09:11.543Z,58.94
2019-05-11T13:11:48.013Z,58.64
2019-05-11T13:14:19.894Z,58.15
2019-05-11T13:16:52.430Z,58.79
2019-05-11T13:19:25.091Z,58.86
2019-05-11T13:21:58.927Z,57.60
2019-05-11T13:24:31.735Z,56.96
2019-05-11T13:27:05.513Z,57.12
2019-05-11T13:29:38.397Z,57.46
2019-05-11T13:32:11.176Z,57.50
2019-05-11T13:34:42.697Z,58.30
2019-05-11T13:37:15.178Z,58.67
2019-05-11T13:39:48.617Z,58.19
2019-05-11T13:42:23.254Z,58.44
2019-05-11T13:44:54.598Z,58.78
2019-05-11T13:47:28.285Z,58.93
2019-05-11T13:50:00.578Z,59.92
2019-05-11T13:52:33.289Z,58.62
2019-05-11T13:55:07.630Z,58.45
2019-05-11T13:57:40.273Z,58.86
2019-05-11T14:00:13.123Z,58.89
2019-05-11T14:02:45.234Z,59.58
2019-05-11T14:05:18.340Z,59.46
2019-05-11T14:07:50.801Z,59.45
2019-05-11T14:10:23.621Z,59.19
2019-05-11T14:12:58.146Z,58.97
2019-05-11T14:15:31.398Z,59.46
2019-05-11T14:18:08.425Z,60.06
2019-05-11T14:20:38.075Z,60.49
2019-05-11T14:23:10.552Z,60.93
2019-05-11T14:25:42.705Z,60.99
2019-05-11T14:28:15.170Z,60.67
2019-05-11T14:30:48.644Z,60.89
2019-05-11T14:33:21.665Z,60.20
2019-05-11T14:35:53.545Z,60.92
2019-05-11T14:38:28.274Z,61.83
2019-05-11T14:41:01.375Z,60.81
2019-05-11T14:43:33.509Z,61.39
2019-05-11T14:46:08.334Z,61.65
2019-05-11T14:48:40.620Z,62.35
2019-05-11T14:51:11.450Z,63.11
2019-05-11T14:53:43.891Z,63.70
2019-05-11T14:56:18.765Z,64.76
2019-05-11T14:58:51.117Z,64.28
2019-05-11T15:01:22.178Z,64.62
2019-05-11T15:03:54.013Z,65.18
2019-05-11T15:06:27.973Z,65.07
2019-05-11T15:09:00.620Z,65.71
2019-05-11T15:11:33.091Z,66.63
2019-05-11T15:14:08.126Z,67.75
2019-05-11T15:16:41.194Z,67.47
2019-05-11T15:19:12.369Z,67.52
2019-05-11T15:21:44.429Z,68.13
2019-05-11T15:24:18.504Z,67.44
2019-05-11T15:26:51.304Z,66.79
2019-05-11T15:29:23.436Z,67.55
2019-05-11T15:31:57.915Z,66.75
2019-05-11T15:34:30.540Z,67.90
2019-05-11T15:37:02.934Z,68.00
2019-05-11T15:39:37.737Z,68.28
2019-05-11T15:42:16.611Z,69.72
2019-05-11T15:44:44.255Z,69.94
2019-05-11T15:47:17.367Z,70.84
2019-05-11T15:49:49.757Z,71.56
2019-05-11T15:52:22.331Z,72.28
2019-05-11T15:54:55.054Z,72.01
2019-05-11T15:57:28.139Z,72.31
2019-05-11T16:00:00.690Z,73.34
2019-05-11T16:02:37.856Z,73.58
2019-05-11T16:05:11.483Z,74.00
2019-05-11T16:07:44.118Z,73.62
2019-05-11T16:10:18.734Z,74.70
2019-05-11T16:12:51.385Z,74.77
2019-05-11T16:15:23.919Z,74.60
2019-05-11T16:17:57.817Z,75.76
2019-05-11T16:20:31.034Z,75.20
2019-05-11T16:23:03.713Z,76.04
2019-05-11T16:25:38.286Z,77.57
2019-05-11T16:28:10.595Z,78.17
2019-05-11T16:30:42.837Z,78.82
2019-05-11T16:33:18.001Z,78.72
2019-05-11T16:35:50.071Z,79.91
2019-05-11T16:38:23.685Z,81.20
2019-05-11T16:40:58.381Z,81.05
2019-05-11T16:43:30.436Z,81.91
2019-05-11T16:46:02.917Z,81.13
2019-05-11T16:48:35.537Z,80.20
2019-05-11T16:51:09.073Z,81.24
2019-05-11T16:53:42.424Z,82.20
2019-05-11T16:56:20.381Z,81.46
2019-05-11T16:58:55.081Z,81.75
2019-05-11T17:01:30.308Z,82.99
2019-05-11T17:04:03.892Z,82.99
2019-05-11T17:06:38.483Z,83.19
2019-05-11T17:09:14.193Z,84.49
2019-05-11T17:11:48.977Z,83.47
2019-05-11T17:14:22.058Z,83.96
2019-05-11T17:16:58.433Z,85.83
2019-05-11T17:19:42.962Z,84.73
2019-05-11T17:22:08.287Z,85.37
2019-05-11T17:24:43.108Z,85.41
2019-05-11T17:27:17.522Z,85.67
2019-05-11T17:29:51.518Z,84.69
2019-05-11T17:32:24.798Z,86.04
2019-05-11T17:34:58.103Z,85.86
2019-05-11T17:37:31.294Z,86.74
2019-05-11T17:40:04.067Z,85.86
2019-05-11T17:42:38.245Z,87.34
2019-05-11T17:45:12.338Z,87.39
2019-05-11T17:47:46.355Z,86.73
2019-05-11T17:50:19.505Z,86.69
2019-05-11T17:52:52.817Z,86.02
2019-05-11T17:55:28.476Z,86.19
2019-05-11T17:58:01.955Z,87.35
2019-05-11T18:00:35.671Z,87.47
2019-05-11T18:03:11.431Z,86.86
2019-05-11T18:05:44.028Z,87.61
2019-05-11T18:08:18.624Z,87.77
2019-05-11T18:10:51.064Z,88.61
2019-05-11T18:13:24.181Z,88.04
2019-05-11T18:15:57.851Z,89.49
2019-05-11T18:18:31.552Z,88.98
2019-05-11T18:21:04.240Z,90.69
2019-05-11T18:23:38.695Z,90.39
2019-05-11T18:26:12.701Z,90.13
2019-05-11T18:28:45.117Z,90.69
2019-05-11T18:31:18.150Z,90.88
2019-05-11T18:33:51.128Z,91.31
2019-05-11T18:36:24.303Z,91.09
2019-05-11T18:38:57.508Z,90.86
2019-05-11T18:41:29.718Z,90.84
2019-05-11T18:44:02.263Z,91.11
2019-05-11T18:46:38.290Z,92.19
2019-05-11T18:49:11.313Z,91.16
2019-05-11T18:51:43.991Z,89.72
2019-05-11T18:54:19.151Z,91.67
2019-05-11T18:56:53.999Z,92.24
2019-05-11T18:59:28.363Z,91.25
2019-05-11T19:02:01.565Z,92.10
2019-05-11T19:04:34.352Z,92.53
2019-05-11T19:07:16.725Z,93.34
2019-05-11T19:09:42.331Z,94.17
2019-05-11T19:12:18.479Z,93.38
2019-05-11T19:14:49.858Z,93.19
2019-05-11T19:17:23.055Z,93.49
2019-05-11T19:19:57.848Z,94.89
2019-05-11T19:22:30.508Z,95.79
2019-05-11T19:25:03.542Z,96.11
2019-05-11T19:27:37.287Z,96.33
2019-05-11T19:30:10.373Z,96.43
2019-05-11T19:32:43.590Z,97.40
2019-05-11T19:35:17.575Z,97.87
2019-05-11T19:37:51.766Z,98.51
2019-05-11T19:40:22.606Z,99.29
2019-05-11T19:42:59.120Z,100.00
2019-05-11T19:45:32.266Z,100.00
2019-05-11T19:48:04.646Z,100.00
2019-05-11T19:50:38.161Z,100.00
2019-05-11T19:53:11.741Z,100.00
2019-05-11T19:55:43.846Z,100.00
2019-05-11T19:58:19.260Z,100.00
2019-05-11T20:00:50.794Z,100.00
2019-05-11T20:03:23.845Z,100.00
2019-05-11T20:05:57.992Z,100.00
2019-05-11T20:08:31.020Z,100.00
2019-05-11T20:11:03.681Z,100.00
2019-05-11T20:13:35.801Z,100.00
2019-05-11T20:16:09.156Z,100.00
2019-05-11T20:18:41.025Z,100.00
2019-05-11T20:21:19.447Z,100.00
2019-05-11T20:23:49.255Z,100.00
2019-05-11T20:26:21.808Z,100.00
2019-05-11T20:28:58.649Z,100.00
2019-05-11T20:31:32.288Z,100.00
2019-05-11T20:34:05.040Z,100.00
2019-05-11T20:36:38.440Z,100.00
2019-05-11T20:39:10.827Z,100.00
2019-05-11T20:41:44.019Z,100.00
2019-05-11T20:44:17.889Z,100.00
2019-05-11T20:46:50.907Z,100.00
2019-05-11T20:49:24.341Z,100.00
2019-05-11T20:51:58.208Z,100.00
2019-05-11T20:54:32.116Z,100.00
2019-05-11T20:57:05.854Z,100.00
2019-05-11T20:59:41.377Z,100.00
2019-05-11T21:02:15.364Z,100.00
2019-05-11T21:04:49.241Z,100.00
2019-05-11T21:07:22.268Z,100.00
2019-05-11T21:09:55.022Z,100.00
2019-05-11T21:12:28.950Z,100.00
2019-05-11T21:15:02.477Z,100.00
2019-05-11T21:17:35.157Z,100.00
2019-05-11T21:20:08.399Z,100.00
2019-05-11T21:22:41.839Z,100.00
2019-05-11T21:25:17.597Z,100.00
2019-05-11T21:27:51.975Z,100.00
2019-05-11T21:30:39.622Z,100.00
2019-05-11T21:33:11.824Z,100.00
2019-05-11T21:35:44.324Z,100.00
2019-05-11T21:38:17.714Z,100.00
2019-05-11T21:40:50.847Z,100.00
2019-05-11T21:43:23.773Z,100.00
2019-05-11T21:45:58.167Z,100.00
2019-05-11T21:48:31.322Z,100.00
2019-05-11T21:51:05.068Z,100.00
2019-05-11T21:53:38.237Z,100.00
2019-05-11T21:56:11.308Z,100.00
2019-05-11T21:58:43.205Z,100.00
2019-05-11T22:01:20.080Z,100.00
2019-05-11T22:03:51.686Z,100.00
2019-05-11T22:06:24.869Z,100.00
2019-05-11T22:08:58.966Z,100.00
2019-05-11T22:11:32.154Z,100.00
2019-05-11T22:14:08.197Z,100.00
2019-05-11T22:16:41.781Z,100.00
2019-05-11T22:19:17.815Z,100.00
2019-05-11T22:21:58.144Z,100.00
2019-05-11T22:24:30.533Z,100.00
2019-05-11T22:27:02.893Z,100.00
2019-05-11T22:29:37.879Z,100.00
2019-05-11T22:32:11.256Z,100.00
2019-05-11T22:34:44.869Z,100.00
2019-05-11T22:37:18.256Z,100.00
2019-05-11T22:39:50.022Z,100.00
2019-05-11T22:42:23.353Z,100.00
2019-05-11T22:44:56.154Z,100.00
2019-05-11T22:47:29.107Z,100.00
2019-05-11T22:50:01.090Z,100.00
2019-05-11T22:52:36.578Z,100.00
2019-05-11T22:55:11.662Z,100.00
2019-05-11T22:57:43.001Z,100.00
2019-05-11T23:00:18.331Z,100.00
2019-05-11T23:02:51.005Z,100.00
2019-05-11T23:05:23.243Z,100.00
2019-05-11T23:07:58.567Z,100.00
2019-05-11T23:10:30.694Z,100.00
2019-05-11T23:13:03.003Z,100.00
2019-05-11T23:15:35.199Z,100.00
2019-05-11T23:18:08.628Z,100.00
2019-05-11T23:20:42.282Z,100.00
2019-05-11T23:23:15.100Z,100.00
2019-05-11T23:25:47.032Z,100.00
2019-05-11T23:28:20.502Z,100.00
2019-05-11T23:30:51.650Z,100.00
2019-05-11T23:33:24.004Z,100.00
2019-05-11T23:35:58.585Z,100.00
2019-05-11T23:38:32.038Z,100.00
2019-05-11T23:41:08.128Z,100.00
2019-05-11T23:43:41.213Z,100.00
2019-05-11T23:46:14.298Z,100.00
2019-05-11T23:48:48.663Z,100.00
2019-05-11T23:51:21.596Z,100.00
2019-05-11T23:53:53.998Z,100.00
2019-05-11T23:56:28.209Z,100.00
2019-05-11T23:59:01.137Z,100.00
